Fort Providence, Canada
Current Conditions -  °F | °C
As of 6:00 PM on Friday 28 Nov 2014 (Local Time) from CYHY Reporting Station
Scattered Clouds Scattered Clouds  
Wind Chill: -33°   Ceiling: Unl
Heat Index: -15°   Visibility: 15mi
Dew Point: -22°   Wind: 9mph
Humidity: 70%   Direction: 200°SSW
Pressure: 30"   Gusts: NA
Location:  61.37°N, 117.65°W
Report Text: CYHY 290100Z 20008KT 15SM SCT210 M26/M30 A3000 RMK CS3 LGT FROIN PRESFR SLP186
Loading
Personal Weather Stations






























Interactive Weather Map New forecast layout! Learn more

10-Day Weather Forecast

Advertisements
Track Severe Weather on mobile